Hobart Regional

About
Name: Hobart Regional
Identifier:  HBR/KHBR
Serves:  Hobart, Oklahoma
Owner:  City of Hobart
Public/Private:  Public
Local Time:  18. Aug 07:49 CDT
Description: Coordinates: 34°59′29″N 099°03′05″W / 34.99139°N 99.05139°W / 34.99139; -99.05139
Source: Wikipedia
Location
Runways
Identifier Length (m/ft) Surface
3/21 5,293/5,293 Asphalt
12/30 4,000/4,000 Asphalt
17/35 5,507/5,507 Asphalt
Flights per Day
0 flights
Distance: 1,140km (708mi)
Punctuality
0% (0 flights per day delayed)
Delay Average: 31 minutes
Current Weather
 25 C (Humidity: 78%)
  15kt (27km/h / 17mph) from 190°
  16km (10 mi.)
 
 METAR KHBR 181153Z AUTO 19015KT 10SM CLR 25/21 A2979 RMK AO2 SLPNO 7//// T02500206 10256 20239 58001 $

Current Flights

Departures
Number Departure To Airline
Arrivals
Number Arrival From Airline

Current Delays

Departures
N/A
Arrivals
N/A

Destinations

Top Destinations
Airport Flights
per week
Seats
per week
  Smyrna (MQY) 0 - 0 0

Airlines & Planes

Top Airlines
Airline Flights
per Day
Seats
per Day
Jet Charter Inc ( Franklin Lakes Nj ) 0 -
Top Plane Types
Model Flights Seats